createdAt,value
2023-09-08T00:02:29.027Z,97378.88
2023-09-08T00:04:56.214Z,97379.00
2023-09-08T00:07:22.947Z,97375.59
2023-09-08T00:09:49.525Z,97379.28
2023-09-08T00:12:16.240Z,97375.88
2023-09-08T00:14:43.135Z,97382.41
2023-09-08T00:17:09.830Z,97383.31
2023-09-08T00:19:36.694Z,97372.91
2023-09-08T00:22:06.994Z,97378.03
2023-09-08T00:24:34.556Z,97376.34
2023-09-08T00:27:01.231Z,97376.94
2023-09-08T00:29:27.955Z,97386.97
2023-09-08T00:31:54.615Z,97384.13
2023-09-08T00:34:21.225Z,97373.31
2023-09-08T00:36:47.724Z,97373.53
2023-09-08T00:39:14.300Z,97374.63
2023-09-08T00:41:40.824Z,97382.84
2023-09-08T00:44:09.853Z,97389.75
2023-09-08T00:46:36.873Z,97380.28
2023-09-08T00:49:03.891Z,97379.81
2023-09-08T00:51:30.505Z,97384.28
2023-09-08T00:53:57.184Z,97386.59
2023-09-08T00:56:24.727Z,97384.31
2023-09-08T00:58:51.329Z,97384.94
2023-09-08T01:01:18.657Z,97388.06
2023-09-08T01:03:45.408Z,97390.00
2023-09-08T01:06:12.888Z,97386.41
2023-09-08T01:08:39.660Z,97389.88
2023-09-08T01:11:06.913Z,97388.94
2023-09-08T01:13:33.521Z,97380.41
2023-09-08T01:16:00.100Z,97389.19
2023-09-08T01:18:26.885Z,97394.97
2023-09-08T01:21:20.453Z,97398.13
2023-09-08T01:24:04.259Z,97399.69
2023-09-08T01:26:36.979Z,97390.47
2023-09-08T01:29:06.403Z,97388.81
2023-09-08T01:31:34.151Z,97391.34
2023-09-08T01:34:05.773Z,97391.94
2023-09-08T01:36:32.383Z,97391.69
2023-09-08T01:38:58.971Z,97389.03
2023-09-08T01:41:25.567Z,97387.72
2023-09-08T01:43:52.136Z,97386.50
2023-09-08T01:46:18.691Z,97386.75
2023-09-08T01:48:45.768Z,97393.34
2023-09-08T01:51:12.433Z,97386.00
2023-09-08T01:53:38.970Z,97390.78
2023-09-08T01:56:05.482Z,97392.69
2023-09-08T01:58:33.762Z,97393.78
2023-09-08T02:01:06.600Z,97384.38
2023-09-08T02:03:33.785Z,97385.38
2023-09-08T02:06:00.315Z,97384.63
2023-09-08T02:08:26.919Z,97383.31
2023-09-08T02:10:53.472Z,97387.97
2023-09-08T02:13:20.080Z,97388.53
2023-09-08T02:15:46.702Z,97385.19
2023-09-08T02:18:14.357Z,97388.28
2023-09-08T02:20:41.168Z,97382.63
2023-09-08T02:23:08.914Z,97391.81
2023-09-08T02:25:35.510Z,97388.34
2023-09-08T02:28:02.327Z,97389.66
2023-09-08T02:30:28.890Z,97393.38
2023-09-08T02:32:56.315Z,97387.34
2023-09-08T02:35:25.379Z,97394.75
2023-09-08T02:37:51.971Z,97384.31
2023-09-08T02:40:20.140Z,97392.22
2023-09-08T02:42:46.768Z,97385.16
2023-09-08T02:45:13.373Z,97380.81
2023-09-08T02:47:40.013Z,97384.53
2023-09-08T02:50:07.875Z,97384.53
2023-09-08T02:52:34.629Z,97378.50
2023-09-08T02:55:01.160Z,97373.84
2023-09-08T02:57:28.266Z,97377.44
2023-09-08T02:59:57.575Z,97382.00
2023-09-08T03:02:26.918Z,97386.78
2023-09-08T03:04:53.632Z,97387.31
2023-09-08T03:07:20.206Z,97380.56
2023-09-08T03:09:46.797Z,97380.78
2023-09-08T03:12:13.523Z,97389.75
2023-09-08T03:14:40.177Z,97378.78
2023-09-08T03:17:06.804Z,97385.88
2023-09-08T03:19:33.374Z,97385.78
2023-09-08T03:21:59.977Z,97384.94
2023-09-08T03:24:26.567Z,97394.34
2023-09-08T03:26:53.172Z,97397.41
2023-09-08T03:29:19.788Z,97394.38
2023-09-08T03:31:46.365Z,97392.31
2023-09-08T03:34:14.171Z,97393.13
2023-09-08T03:36:40.859Z,97390.94
2023-09-08T03:39:07.739Z,97398.31
2023-09-08T03:41:34.305Z,97393.25
2023-09-08T03:44:00.844Z,97399.06
2023-09-08T03:46:27.465Z,97406.88
2023-09-08T03:48:59.661Z,97400.13
2023-09-08T03:51:26.183Z,97403.94
2023-09-08T03:53:52.784Z,97402.47
2023-09-08T03:56:19.355Z,97399.19
2023-09-08T03:58:45.930Z,97404.69
2023-09-08T04:01:12.544Z,97404.69
2023-09-08T04:03:39.316Z,97393.38
2023-09-08T04:06:06.033Z,97404.78
2023-09-08T04:08:32.587Z,97411.97
2023-09-08T04:10:59.184Z,97410.06
2023-09-08T04:13:25.732Z,97417.13
2023-09-08T04:15:52.275Z,97417.47
2023-09-08T04:18:18.934Z,97410.81
2023-09-08T04:20:45.617Z,97411.44
2023-09-08T04:23:12.239Z,97417.88
2023-09-08T04:25:38.764Z,97415.34
2023-09-08T04:28:05.886Z,97411.75
2023-09-08T04:30:32.488Z,97404.78
2023-09-08T04:32:59.459Z,97414.59
2023-09-08T04:35:26.267Z,97412.94
2023-09-08T04:37:52.836Z,97406.78
2023-09-08T04:40:19.339Z,97413.00
2023-09-08T04:42:46.589Z,97407.44
2023-09-08T04:45:14.903Z,97402.38
2023-09-08T04:47:41.617Z,97406.91
2023-09-08T04:50:09.155Z,97420.72
2023-09-08T04:52:35.774Z,97422.09
2023-09-08T04:55:02.399Z,97421.25
2023-09-08T04:57:30.037Z,97423.91
2023-09-08T04:59:56.601Z,97422.94
2023-09-08T05:02:23.287Z,97425.25
2023-09-08T05:04:50.210Z,97419.47
2023-09-08T05:07:16.787Z,97425.69
2023-09-08T05:09:43.416Z,97428.53
2023-09-08T05:12:10.059Z,97425.13
2023-09-08T05:14:36.657Z,97429.75
2023-09-08T05:17:04.015Z,97432.50
2023-09-08T05:19:30.546Z,97437.66
2023-09-08T05:21:57.114Z,97431.28
2023-09-08T05:24:23.820Z,97427.75
2023-09-08T05:26:50.466Z,97423.50
2023-09-08T05:29:16.994Z,97428.75
2023-09-08T05:31:44.314Z,97435.53
2023-09-08T05:41:53.391Z,97441.69
2023-09-08T05:44:19.971Z,97445.53
2023-09-08T05:46:46.723Z,97443.38
2023-09-08T05:49:13.814Z,97448.47
2023-09-08T05:51:40.595Z,97453.91
2023-09-08T05:54:07.196Z,97449.63
2023-09-08T05:56:34.855Z,97459.63
2023-09-08T05:59:02.620Z,97452.78
2023-09-08T06:01:30.564Z,97452.63
2023-09-08T06:03:57.418Z,97461.38
2023-09-08T06:06:24.271Z,97461.06
2023-09-08T06:08:50.879Z,97462.44
2023-09-08T06:11:17.482Z,97467.16
2023-09-08T06:13:44.118Z,97467.50
2023-09-08T06:16:10.661Z,97461.59
2023-09-08T06:18:41.270Z,97456.16
2023-09-08T06:21:08.386Z,97458.69
2023-09-08T06:23:37.721Z,97453.69
2023-09-08T06:26:04.772Z,97454.50
2023-09-08T06:28:31.390Z,97467.09
2023-09-08T06:30:58.007Z,97460.78
2023-09-08T06:33:24.928Z,97461.31
2023-09-08T06:35:52.044Z,97464.75
2023-09-08T06:38:18.630Z,97470.63
2023-09-08T06:40:45.236Z,97465.91
2023-09-08T06:43:11.788Z,97462.78
2023-09-08T06:45:41.387Z,97466.31
2023-09-08T06:48:08.125Z,97458.47
2023-09-08T06:50:36.178Z,97466.41
2023-09-08T06:53:02.900Z,97471.84
2023-09-08T06:55:29.536Z,97465.34
2023-09-08T06:57:56.275Z,97475.91
2023-09-08T07:00:23.112Z,97470.22
2023-09-08T07:02:50.820Z,97468.00
2023-09-08T07:05:17.803Z,97479.72
2023-09-08T07:07:45.024Z,97476.53
2023-09-08T07:10:12.358Z,97475.94
2023-09-08T07:12:38.904Z,97473.19
2023-09-08T07:15:05.896Z,97477.94
2023-09-08T07:17:32.526Z,97473.34
2023-09-08T07:19:59.150Z,97469.91
2023-09-08T07:22:25.740Z,97467.75
2023-09-08T07:24:52.262Z,97472.66
2023-09-08T07:27:19.926Z,97473.47
2023-09-08T07:29:48.935Z,97471.47
2023-09-08T07:32:15.670Z,97472.38
2023-09-08T07:34:42.374Z,97478.25
2023-09-08T07:37:09.073Z,97470.38
2023-09-08T07:39:36.600Z,97471.13
2023-09-08T07:42:03.850Z,97469.94
2023-09-08T07:44:30.612Z,97473.34
2023-09-08T07:46:57.776Z,97468.94
2023-09-08T07:49:25.276Z,97470.50
2023-09-08T07:51:51.948Z,97468.94
2023-09-08T07:54:20.470Z,97474.09
2023-09-08T07:56:47.785Z,97469.53
2023-09-08T07:59:14.435Z,97470.19
2023-09-08T08:01:41.062Z,97467.22
2023-09-08T08:04:07.885Z,97460.53
2023-09-08T08:06:34.512Z,97463.13
2023-09-08T08:09:02.851Z,97457.25
2023-09-08T08:11:30.015Z,97455.59
2023-09-08T08:13:57.930Z,97455.53
2023-09-08T08:16:25.580Z,97454.63
2023-09-08T08:18:52.690Z,97452.44
2023-09-08T08:21:19.488Z,97448.78
2023-09-08T08:23:46.049Z,97449.22
2023-09-08T08:26:12.533Z,97438.81
2023-09-08T08:28:38.946Z,97442.91
2023-09-08T08:31:06.049Z,97442.81
2023-09-08T08:33:33.188Z,97433.66
2023-09-08T08:36:00.109Z,97434.09
2023-09-08T08:38:26.753Z,97433.41
2023-09-08T08:40:53.373Z,97437.69
2023-09-08T08:43:20.739Z,97436.59
2023-09-08T08:45:48.585Z,97425.34
2023-09-08T08:48:16.571Z,97428.34
2023-09-08T08:50:44.194Z,97430.19
2023-09-08T08:53:11.520Z,97431.81
2023-09-08T08:55:38.027Z,97427.47
2023-09-08T08:58:05.456Z,97420.75
2023-09-08T09:00:34.390Z,97418.22
2023-09-08T09:03:12.079Z,97416.41
2023-09-08T09:05:44.646Z,97417.22
2023-09-08T09:08:14.302Z,97416.16
2023-09-08T09:10:40.766Z,97406.47
2023-09-08T09:13:07.179Z,97406.81
2023-09-08T09:15:33.879Z,97411.94
2023-09-08T09:18:07.684Z,97408.03
2023-09-08T09:20:35.501Z,97407.16
2023-09-08T09:23:02.168Z,97404.44
2023-09-08T09:25:31.173Z,97406.00
2023-09-08T09:28:02.464Z,97405.47
2023-09-08T09:30:29.472Z,97407.69
2023-09-08T09:33:06.384Z,97412.19
2023-09-08T09:35:52.794Z,97412.44
2023-09-08T09:38:22.852Z,97408.06
2023-09-08T09:40:50.181Z,97404.50
2023-09-08T09:43:21.379Z,97407.50
2023-09-08T09:45:48.033Z,97402.59
2023-09-08T09:48:14.602Z,97393.38
2023-09-08T09:50:42.255Z,97390.81
2023-09-08T09:53:10.625Z,97388.69
2023-09-08T09:55:37.754Z,97385.03
2023-09-08T09:58:05.114Z,97384.34
2023-09-08T10:00:34.417Z,97383.41
2023-09-08T10:03:01.140Z,97368.03
2023-09-08T10:05:28.445Z,97387.31
2023-09-08T10:07:54.985Z,97376.06
2023-09-08T10:10:22.295Z,97371.41
2023-09-08T10:12:52.995Z,97367.75
2023-09-08T10:15:21.658Z,97364.53
2023-09-08T10:17:53.254Z,97367.84
2023-09-08T10:20:22.365Z,97372.47
2023-09-08T10:22:51.100Z,97366.13
2023-09-08T10:25:18.985Z,97363.13
2023-09-08T10:27:45.540Z,97355.94
2023-09-08T10:30:12.404Z,97357.09
2023-09-08T10:32:39.845Z,97358.50
2023-09-08T10:35:07.220Z,97355.44
2023-09-08T10:37:33.898Z,97362.59
2023-09-08T10:40:19.241Z,97363.66
2023-09-08T10:42:45.720Z,97355.63
2023-09-08T10:45:17.647Z,97364.25
2023-09-08T10:47:47.243Z,97363.97
2023-09-08T10:50:20.530Z,97361.09
2023-09-08T10:53:04.886Z,97357.69
2023-09-08T10:56:16.627Z,97356.06
2023-09-08T10:58:44.416Z,97350.50
2023-09-08T11:01:16.560Z,97348.03
2023-09-08T11:03:43.089Z,97355.38
2023-09-08T11:06:10.352Z,97350.84
2023-09-08T11:08:38.815Z,97349.13
2023-09-08T11:11:05.528Z,97347.16
2023-09-08T11:13:31.958Z,97346.00
2023-09-08T11:15:58.481Z,97350.84
2023-09-08T11:18:28.638Z,97349.19
2023-09-08T11:20:55.674Z,97354.94
2023-09-08T11:23:22.580Z,97344.22
2023-09-08T11:25:50.686Z,97332.34
2023-09-08T11:28:17.970Z,97343.19
2023-09-08T11:30:47.494Z,97330.06
2023-09-08T11:33:17.445Z,97341.59
2023-09-08T11:35:46.268Z,97334.66
2023-09-08T11:38:12.751Z,97332.56
2023-09-08T11:40:40.862Z,97328.16
2023-09-08T11:43:07.928Z,97331.56
2023-09-08T11:45:37.914Z,97327.31
2023-09-08T11:48:05.208Z,97328.97
2023-09-08T11:50:32.446Z,97325.97
2023-09-08T11:53:03.585Z,97325.09
2023-09-08T11:55:30.213Z,97328.47
2023-09-08T11:58:01.421Z,97331.75
2023-09-08T12:00:28.361Z,97321.41
2023-09-08T12:02:55.396Z,97325.59
2023-09-08T12:05:22.832Z,97324.28
2023-09-08T12:07:50.703Z,97323.09
2023-09-08T12:10:19.005Z,97321.03
2023-09-08T12:12:46.513Z,97319.22
2023-09-08T12:15:13.116Z,97312.03
2023-09-08T12:17:49.783Z,97316.53
2023-09-08T12:20:17.503Z,97312.50
2023-09-08T12:22:53.537Z,97307.69
2023-09-08T12:25:20.475Z,97307.56
2023-09-08T12:27:50.636Z,97304.66
2023-09-08T12:30:21.123Z,97303.56
2023-09-08T12:32:49.850Z,97305.88
2023-09-08T12:35:23.827Z,97300.31
2023-09-08T12:38:04.110Z,97305.41
2023-09-08T12:40:31.767Z,97307.06
2023-09-08T12:43:06.645Z,97296.13
2023-09-08T12:45:45.823Z,97286.47
2023-09-08T12:48:12.347Z,97298.94
2023-09-08T12:50:38.813Z,97293.47
2023-09-08T12:53:05.220Z,97291.59
2023-09-08T12:55:31.703Z,97295.78
2023-09-08T12:57:58.506Z,97294.31
2023-09-08T13:00:25.933Z,97290.56
2023-09-08T13:02:53.111Z,97297.09
2023-09-08T13:05:19.819Z,97295.06
2023-09-08T13:07:46.306Z,97288.59
2023-09-08T13:10:12.897Z,97286.84
2023-09-08T13:12:39.807Z,97289.88
2023-09-08T13:15:06.712Z,97284.03
2023-09-08T13:17:33.178Z,97286.31
2023-09-08T13:19:59.696Z,97291.78
2023-09-08T13:22:26.510Z,97296.00
2023-09-08T13:24:53.047Z,97289.97
2023-09-08T13:27:19.949Z,97290.38
2023-09-08T13:29:46.515Z,97284.38
2023-09-08T13:32:13.197Z,97284.69
2023-09-08T13:34:39.895Z,97283.03
2023-09-08T13:37:06.938Z,97273.56
2023-09-08T13:39:33.512Z,97273.09
2023-09-08T13:42:02.202Z,97259.56
2023-09-08T13:44:29.091Z,97266.78
2023-09-08T13:46:56.417Z,97260.63
2023-09-08T13:49:25.640Z,97258.66
2023-09-08T13:51:56.761Z,97250.19
2023-09-08T13:54:24.972Z,97255.56
2023-09-08T13:57:07.606Z,97252.06
2023-09-08T13:59:36.462Z,97258.41
2023-09-08T14:04:34.697Z,97248.16
2023-09-08T14:07:08.760Z,97244.31
2023-09-08T14:09:50.133Z,97259.50
2023-09-08T14:14:49.763Z,97256.84
2023-09-08T14:17:16.382Z,97252.56
2023-09-08T14:19:42.988Z,97261.91
2023-09-08T14:22:09.637Z,97251.81
2023-09-08T14:24:36.159Z,97249.56
2023-09-08T14:27:02.683Z,97250.44
2023-09-08T14:29:29.246Z,97255.50
2023-09-08T14:31:55.802Z,97256.16
2023-09-08T14:34:22.384Z,97253.31
2023-09-08T14:36:49.616Z,97255.47
2023-09-08T14:39:17.713Z,97262.78
2023-09-08T14:41:45.902Z,97252.19
2023-09-08T14:44:12.469Z,97252.22
2023-09-08T14:46:39.149Z,97253.69
2023-09-08T14:49:05.937Z,97259.13
2023-09-08T14:51:32.482Z,97252.66
2023-09-08T14:53:59.190Z,97255.00
2023-09-08T14:56:25.750Z,97260.84
2023-09-08T14:58:52.297Z,97266.47
2023-09-08T15:01:18.999Z,97266.06
2023-09-08T15:03:45.984Z,97257.34
2023-09-08T15:06:13.649Z,97253.19
2023-09-08T15:08:43.863Z,97257.34
2023-09-08T15:11:10.475Z,97250.84
2023-09-08T15:13:37.339Z,97254.19
2023-09-08T15:16:04.349Z,97252.97
2023-09-08T15:18:31.622Z,97249.19
2023-09-08T15:20:58.236Z,97255.03
2023-09-08T15:23:24.846Z,97251.91
2023-09-08T15:25:59.169Z,97247.31
2023-09-08T15:28:26.298Z,97252.53
2023-09-08T15:30:54.938Z,97258.78
2023-09-08T15:33:23.578Z,97252.72
2023-09-08T15:35:52.066Z,97248.16
2023-09-08T15:38:19.514Z,97257.66
2023-09-08T15:41:08.196Z,97248.72
2023-09-08T15:44:28.205Z,97253.91
2023-09-08T15:46:54.746Z,97253.91
2023-09-08T15:49:27.022Z,97258.25
2023-09-08T15:52:13.302Z,97255.94
2023-09-08T15:54:42.069Z,97245.97
2023-09-08T15:57:10.014Z,97254.66
2023-09-08T15:59:36.552Z,97245.31
2023-09-08T16:02:03.628Z,97242.19
2023-09-08T16:04:30.426Z,97249.84
2023-09-08T16:07:05.884Z,97244.25
2023-09-08T16:09:32.533Z,97238.63
2023-09-08T16:11:59.147Z,97239.22
2023-09-08T16:14:25.897Z,97237.28
2023-09-08T16:16:55.004Z,97239.94
2023-09-08T16:19:21.596Z,97234.31
2023-09-08T16:21:48.153Z,97234.94
2023-09-08T16:24:14.709Z,97234.06
2023-09-08T16:26:41.356Z,97236.91
2023-09-08T16:29:08.062Z,97235.03
2023-09-08T16:31:34.638Z,97235.63
2023-09-08T16:34:01.468Z,97231.66
2023-09-08T16:36:28.008Z,97234.09
2023-09-08T16:38:54.548Z,97230.16
2023-09-08T16:41:21.086Z,97230.94
2023-09-08T16:43:47.686Z,97227.53
2023-09-08T16:50:11.379Z,97232.19
2023-09-08T16:52:43.633Z,97233.59
2023-09-08T16:55:12.690Z,97226.03
2023-09-08T16:57:40.315Z,97230.34
2023-09-08T17:00:08.448Z,97232.34
2023-09-08T17:02:38.378Z,97223.94
2023-09-08T17:06:06.200Z,97232.56
2023-09-08T17:12:13.102Z,97236.13
2023-09-08T17:15:15.688Z,97234.59
2023-09-08T17:17:42.265Z,97237.97
2023-09-08T17:20:09.482Z,97233.25
2023-09-08T17:22:36.750Z,97240.47
2023-09-08T17:51:38.379Z,97252.97
2023-09-08T17:54:05.008Z,97254.56
2023-09-08T17:56:33.505Z,97259.59
2023-09-08T17:59:00.052Z,97258.81
2023-09-08T18:01:26.837Z,97258.53
2023-09-08T18:03:53.630Z,97262.06
2023-09-08T18:06:20.885Z,97255.38
2023-09-08T18:08:51.424Z,97265.25
2023-09-08T18:11:20.731Z,97260.25
2023-09-08T18:13:48.332Z,97261.59
2023-09-08T18:16:14.950Z,97265.09
2023-09-08T18:18:41.600Z,97263.59
2023-09-08T18:21:08.319Z,97265.13
2023-09-08T18:23:35.892Z,97267.94
2023-09-08T18:26:02.691Z,97271.25
2023-09-08T18:28:29.248Z,97274.75
2023-09-08T18:30:55.858Z,97272.22
2023-09-08T18:33:22.438Z,97270.34
2023-09-08T18:35:48.937Z,97270.78
2023-09-08T18:38:15.527Z,97269.25
2023-09-08T18:40:46.574Z,97279.06
2023-09-08T18:43:16.740Z,97276.72
2023-09-08T18:45:43.718Z,97281.34
2023-09-08T18:48:10.447Z,97280.63
2023-09-08T18:50:37.263Z,97277.44
2023-09-08T18:53:04.062Z,97277.50
2023-09-08T18:55:30.699Z,97270.16
2023-09-08T18:57:57.311Z,97271.09
2023-09-08T19:00:23.898Z,97280.88
2023-09-08T19:02:50.637Z,97274.78
2023-09-08T19:05:17.434Z,97274.41
2023-09-08T19:07:46.206Z,97270.88
2023-09-08T19:10:13.032Z,97271.31
2023-09-08T19:12:39.596Z,97270.72
2023-09-08T19:15:06.608Z,97265.19
2023-09-08T19:17:33.309Z,97266.78
2023-09-08T19:19:59.967Z,97264.72
2023-09-08T19:22:26.652Z,97275.69
2023-09-08T19:24:53.792Z,97271.50
2023-09-08T19:27:20.388Z,97277.81
2023-09-08T19:29:50.942Z,97277.19
2023-09-08T19:32:17.834Z,97285.47
2023-09-08T19:34:44.355Z,97295.41
2023-09-08T19:37:10.961Z,97276.50
2023-09-08T19:39:37.652Z,97283.41
2023-09-08T19:42:04.632Z,97290.56
2023-09-08T19:44:31.188Z,97277.81
2023-09-08T19:46:57.814Z,97280.41
2023-09-08T19:49:24.377Z,97286.72
2023-09-08T19:51:50.956Z,97284.25
2023-09-08T19:54:17.534Z,97288.81
2023-09-08T19:56:44.074Z,97292.28
2023-09-08T19:59:10.705Z,97291.47
2023-09-08T20:01:37.247Z,97294.81
2023-09-08T20:04:03.917Z,97288.53
2023-09-08T20:06:30.528Z,97282.28
2023-09-08T20:08:57.134Z,97286.59
2023-09-08T20:11:23.758Z,97291.09
2023-09-08T20:13:50.453Z,97285.38
2023-09-08T20:16:16.977Z,97277.53
2023-09-08T20:18:43.601Z,97281.91
2023-09-08T20:21:10.822Z,97286.66
2023-09-08T20:23:37.983Z,97280.94
2023-09-08T20:26:04.923Z,97281.06
2023-09-08T20:28:33.110Z,97285.16
2023-09-08T20:31:14.988Z,97282.91
2023-09-08T20:33:42.778Z,97286.44
2023-09-08T20:36:12.053Z,97285.19
2023-09-08T20:38:39.396Z,97287.19
2023-09-08T20:41:06.492Z,97282.41
2023-09-08T20:43:34.829Z,97280.31
2023-09-08T20:46:06.267Z,97276.81
2023-09-08T20:48:37.138Z,97276.38
2023-09-08T20:51:10.933Z,97279.50
2023-09-08T20:53:40.617Z,97280.91
2023-09-08T20:56:08.447Z,97289.28
2023-09-08T20:58:35.178Z,97297.69
2023-09-08T21:01:04.892Z,97290.13
2023-09-08T21:03:31.983Z,97288.44
2023-09-08T21:05:59.235Z,97291.22
2023-09-08T21:08:26.005Z,97288.97
2023-09-08T21:10:55.972Z,97291.19
2023-09-08T21:13:22.381Z,97290.06
2023-09-08T21:15:49.716Z,97284.88
2023-09-08T21:18:16.568Z,97291.59
2023-09-08T21:20:43.610Z,97295.78
2023-09-08T21:23:10.210Z,97294.94
2023-09-08T21:25:36.834Z,97299.81
2023-09-08T21:28:04.503Z,97293.81
2023-09-08T21:30:31.073Z,97293.38
2023-09-08T21:32:58.007Z,97284.00
2023-09-08T21:35:27.245Z,97283.16
2023-09-08T21:37:53.950Z,97293.09
2023-09-08T21:40:20.542Z,97294.34
2023-09-08T21:42:47.143Z,97304.94
2023-09-08T21:45:14.728Z,97296.50
2023-09-08T21:47:41.743Z,97297.38
2023-09-08T21:50:08.785Z,97289.94
2023-09-08T21:52:38.959Z,97297.06
2023-09-08T21:55:07.269Z,97295.66
2023-09-08T21:57:33.871Z,97290.16
2023-09-08T22:00:00.421Z,97289.47
2023-09-08T22:02:27.315Z,97295.16
2023-09-08T22:04:55.973Z,97287.75
2023-09-08T22:07:22.818Z,97290.78
2023-09-08T22:09:51.898Z,97292.31
2023-09-08T22:12:18.424Z,97294.66
2023-09-08T22:14:45.023Z,97292.38
2023-09-08T22:17:11.557Z,97292.88
2023-09-08T22:19:38.080Z,97304.56
2023-09-08T22:22:04.988Z,97301.91
2023-09-08T22:24:31.886Z,97297.34
2023-09-08T22:26:58.584Z,97299.28
2023-09-08T22:29:25.317Z,97307.63
2023-09-08T22:31:51.985Z,97305.81
2023-09-08T22:34:20.896Z,97314.41
2023-09-08T22:36:47.642Z,97307.81
2023-09-08T22:39:14.206Z,97302.34
2023-09-08T22:41:40.733Z,97307.44
2023-09-08T22:44:07.529Z,97304.06
2023-09-08T22:46:34.101Z,97305.50
2023-09-08T22:49:02.197Z,97299.09
2023-09-08T22:51:28.794Z,97303.25
2023-09-08T22:53:55.316Z,97296.50
2023-09-08T22:56:21.975Z,97304.56
2023-09-08T22:58:48.528Z,97300.75
2023-09-08T23:01:15.626Z,97300.63
2023-09-08T23:03:42.887Z,97298.25
2023-09-08T23:06:10.165Z,97300.16
2023-09-08T23:08:36.716Z,97299.47
2023-09-08T23:11:03.398Z,97304.78
2023-09-08T23:13:30.029Z,97296.91
2023-09-08T23:15:56.591Z,97299.25
2023-09-08T23:18:23.225Z,97303.13
2023-09-08T23:20:50.131Z,97298.91
2023-09-08T23:23:17.029Z,97299.91
2023-09-08T23:25:43.613Z,97299.75
2023-09-08T23:28:10.206Z,97298.78
2023-09-08T23:30:36.896Z,97298.22
2023-09-08T23:33:03.905Z,97294.13
2023-09-08T23:35:30.543Z,97292.66
2023-09-08T23:37:57.131Z,97296.53
2023-09-08T23:40:25.469Z,97299.31
2023-09-08T23:42:52.014Z,97301.63
2023-09-08T23:45:18.546Z,97301.03
2023-09-08T23:47:45.119Z,97297.56
2023-09-08T23:50:11.839Z,97293.34
2023-09-08T23:52:38.583Z,97295.16
2023-09-08T23:55:05.631Z,97287.56
2023-09-08T23:57:32.250Z,97285.19
2023-09-08T23:59:59.080Z,97278.19
